sensor_id;sensor_type;location;lat;lon;timestamp;pressure;altitude;pressure_sealevel;temperature;humidity
14757;BME280;62446;53.214;10.398;2022-08-19T00:01:38;100953.09;;;22.44;54.20
14757;BME280;62446;53.214;10.398;2022-08-19T00:04:42;100960.16;;;22.41;54.24
14757;BME280;62446;53.214;10.398;2022-08-19T00:07:49;100965.78;;;22.41;54.00
14757;BME280;62446;53.214;10.398;2022-08-19T00:10:53;100971.41;;;22.41;54.20
14757;BME280;62446;53.214;10.398;2022-08-19T00:13:58;100972.56;;;22.40;54.08
14757;BME280;62446;53.214;10.398;2022-08-19T00:17:02;100969.22;;;22.38;54.07
14757;BME280;62446;53.214;10.398;2022-08-19T00:20:08;100965.28;;;22.39;54.14
14757;BME280;62446;53.214;10.398;2022-08-19T00:23:13;100960.78;;;22.38;53.93
14757;BME280;62446;53.214;10.398;2022-08-19T00:26:17;100957.47;;;22.36;54.46
14757;BME280;62446;53.214;10.398;2022-08-19T00:29:23;100953.50;;;22.37;54.26
14757;BME280;62446;53.214;10.398;2022-08-19T00:32:27;100963.91;;;22.36;54.15
14757;BME280;62446;53.214;10.398;2022-08-19T00:35:31;100962.22;;;22.35;54.16
14757;BME280;62446;53.214;10.398;2022-08-19T00:38:37;100955.78;;;22.35;54.08
14757;BME280;62446;53.214;10.398;2022-08-19T00:41:42;100952.16;;;22.34;54.22
14757;BME280;62446;53.214;10.398;2022-08-19T00:44:50;100958.09;;;22.33;54.14
14757;BME280;62446;53.214;10.398;2022-08-19T00:47:54;100946.00;;;22.32;54.30
14757;BME280;62446;53.214;10.398;2022-08-19T00:50:58;100959.22;;;22.32;54.33
14757;BME280;62446;53.214;10.398;2022-08-19T00:54:03;100962.03;;;22.32;54.05
14757;BME280;62446;53.214;10.398;2022-08-19T00:57:10;100945.19;;;22.32;54.26
14757;BME280;62446;53.214;10.398;2022-08-19T01:00:18;100949.97;;;22.31;54.12
14757;BME280;62446;53.214;10.398;2022-08-19T01:03:22;100941.84;;;22.30;53.92
14757;BME280;62446;53.214;10.398;2022-08-19T01:06:26;100939.03;;;22.30;54.05
14757;BME280;62446;53.214;10.398;2022-08-19T01:09:30;100934.56;;;22.29;54.02
14757;BME280;62446;53.214;10.398;2022-08-19T01:12:35;100935.69;;;22.28;54.03
14757;BME280;62446;53.214;10.398;2022-08-19T01:15:42;100935.69;;;22.28;54.16
14757;BME280;62446;53.214;10.398;2022-08-19T01:18:48;100921.97;;;22.26;54.17
14757;BME280;62446;53.214;10.398;2022-08-19T01:21:57;100914.34;;;22.27;54.25
14757;BME280;62446;53.214;10.398;2022-08-19T01:25:19;100919.16;;;22.26;54.19
14757;BME280;62446;53.214;10.398;2022-08-19T01:28:27;100922.28;;;22.24;54.14
14757;BME280;62446;53.214;10.398;2022-08-19T01:31:41;100918.09;;;22.22;54.07
14757;BME280;62446;53.214;10.398;2022-08-19T01:34:45;100911.66;;;22.21;54.14
14757;BME280;62446;53.214;10.398;2022-08-19T01:37:51;100923.72;;;22.22;54.06
14757;BME280;62446;53.214;10.398;2022-08-19T01:40:57;100929.34;;;22.22;53.93
14757;BME280;62446;53.214;10.398;2022-08-19T01:44:03;100929.63;;;22.20;54.38
14757;BME280;62446;53.214;10.398;2022-08-19T01:47:20;100919.53;;;22.19;54.25
14757;BME280;62446;53.214;10.398;2022-08-19T01:50:24;100922.34;;;22.19;53.98
14757;BME280;62446;53.214;10.398;2022-08-19T01:53:28;100912.28;;;22.18;54.29
14757;BME280;62446;53.214;10.398;2022-08-19T01:56:36;100917.91;;;22.18;54.24
14757;BME280;62446;53.214;10.398;2022-08-19T01:59:41;100916.22;;;22.17;54.20
14757;BME280;62446;53.214;10.398;2022-08-19T02:02:46;100921.84;;;22.17;54.24
14757;BME280;62446;53.214;10.398;2022-08-19T02:05:54;100921.00;;;22.17;53.96
14757;BME280;62446;53.214;10.398;2022-08-19T02:08:58;100912.34;;;22.13;54.39
14757;BME280;62446;53.214;10.398;2022-08-19T02:12:04;100912.03;;;22.15;54.26
14757;BME280;62446;53.214;10.398;2022-08-19T02:15:09;100910.41;;;22.14;54.22
14757;BME280;62446;53.214;10.398;2022-08-19T02:18:14;100906.75;;;22.13;54.13
14757;BME280;62446;53.214;10.398;2022-08-19T02:21:19;100909.53;;;22.13;54.18
14757;BME280;62446;53.214;10.398;2022-08-19T02:24:23;100911.31;;;22.09;54.44
14757;BME280;62446;53.214;10.398;2022-08-19T02:27:28;100911.31;;;22.09;54.01
14757;BME280;62446;53.214;10.398;2022-08-19T02:30:32;100905.16;;;22.07;54.19
14757;BME280;62446;53.214;10.398;2022-08-19T02:33:36;100914.09;;;22.09;54.18
14757;BME280;62446;53.214;10.398;2022-08-19T02:36:39;100918.06;;;22.08;54.12
14757;BME280;62446;53.214;10.398;2022-08-19T02:39:44;100917.22;;;22.07;54.03
14757;BME280;62446;53.214;10.398;2022-08-19T02:42:48;100897.88;;;22.06;54.34
14757;BME280;62446;53.214;10.398;2022-08-19T02:45:52;100887.50;;;22.06;54.34
14757;BME280;62446;53.214;10.398;2022-08-19T02:49:01;100885.53;;;22.07;54.29
14757;BME280;62446;53.214;10.398;2022-08-19T02:52:05;100896.22;;;22.05;54.33
14757;BME280;62446;53.214;10.398;2022-08-19T02:55:09;100895.38;;;22.04;54.12
14757;BME280;62446;53.214;10.398;2022-08-19T02:58:15;100894.56;;;22.04;54.00
14757;BME280;62446;53.214;10.398;2022-08-19T03:01:24;100888.94;;;22.04;54.10
14757;BME280;62446;53.214;10.398;2022-08-19T03:04:28;100894.88;;;22.02;54.27
14757;BME280;62446;53.214;10.398;2022-08-19T03:07:32;100901.63;;;22.01;54.09
14757;BME280;62446;53.214;10.398;2022-08-19T03:10:40;100891.25;;;22.02;54.21
14757;BME280;62446;53.214;10.398;2022-08-19T03:13:47;100889.56;;;22.01;54.28
14757;BME280;62446;53.214;10.398;2022-08-19T03:16:53;100899.13;;;22.00;54.27
14757;BME280;62446;53.214;10.398;2022-08-19T03:19:57;100905.88;;;21.99;54.07
14757;BME280;62446;53.214;10.398;2022-08-19T03:23:00;100918.25;;;21.98;54.13
14757;BME280;62446;53.214;10.398;2022-08-19T03:26:05;100919.38;;;21.97;54.36
14757;BME280;62446;53.214;10.398;2022-08-19T03:29:19;100913.78;;;21.97;54.18
14757;BME280;62446;53.214;10.398;2022-08-19T03:32:32;100923.00;;;21.97;54.26
14757;BME280;62446;53.214;10.398;2022-08-19T03:35:36;100923.31;;;21.96;54.17
14757;BME280;62446;53.214;10.398;2022-08-19T03:38:43;100930.09;;;21.95;54.30
14757;BME280;62446;53.214;10.398;2022-08-19T03:41:48;100929.25;;;21.94;54.08
14757;BME280;62446;53.214;10.398;2022-08-19T03:45:14;100939.66;;;21.94;54.43
14757;BME280;62446;53.214;10.398;2022-08-19T03:48:18;100937.97;;;21.93;54.22
14757;BME280;62446;53.214;10.398;2022-08-19T03:51:24;100941.91;;;21.92;54.21
14757;BME280;62446;53.214;10.398;2022-08-19T03:54:32;100935.47;;;21.91;54.53
14757;BME280;62446;53.214;10.398;2022-08-19T03:57:36;100934.66;;;21.91;54.42
14757;BME280;62446;53.214;10.398;2022-08-19T04:00:43;100941.91;;;21.92;54.21
14757;BME280;62446;53.214;10.398;2022-08-19T04:03:47;100935.75;;;21.89;54.30
14757;BME280;62446;53.214;10.398;2022-08-19T04:06:51;100944.16;;;21.89;54.34
14757;BME280;62446;53.214;10.398;2022-08-19T04:09:55;100936.88;;;21.88;54.13
14757;BME280;62446;53.214;10.398;2022-08-19T04:12:59;100939.69;;;21.88;54.02
14757;BME280;62446;53.214;10.398;2022-08-19T04:16:05;100943.66;;;21.87;54.36
14757;BME280;62446;53.214;10.398;2022-08-19T04:19:09;100941.97;;;21.86;54.11
14757;BME280;62446;53.214;10.398;2022-08-19T04:22:13;100949.56;;;21.86;54.33
14757;BME280;62446;53.214;10.398;2022-08-19T04:25:17;100947.06;;;21.84;54.21
14757;BME280;62446;53.214;10.398;2022-08-19T04:28:22;100959.13;;;21.85;54.39
14757;BME280;62446;53.214;10.398;2022-08-19T04:31:29;100958.31;;;21.84;54.37
14757;BME280;62446;53.214;10.398;2022-08-19T04:34:33;100960.25;;;21.84;54.00
14757;BME280;62446;53.214;10.398;2022-08-19T04:37:57;100961.41;;;21.83;54.40
14757;BME280;62446;53.214;10.398;2022-08-19T04:41:02;100960.56;;;21.82;54.36
14757;BME280;62446;53.214;10.398;2022-08-19T04:44:24;100962.56;;;21.82;54.36
14757;BME280;62446;53.214;10.398;2022-08-19T04:47:30;100968.47;;;21.80;54.23
14757;BME280;62446;53.214;10.398;2022-08-19T04:50:56;100962.84;;;21.80;54.30
14757;BME280;62446;53.214;10.398;2022-08-19T04:54:01;100955.56;;;21.79;54.33
14757;BME280;62446;53.214;10.398;2022-08-19T04:57:07;100966.28;;;21.77;54.29
14757;BME280;62446;53.214;10.398;2022-08-19T05:00:13;100970.72;;;21.78;54.02
14757;BME280;62446;53.214;10.398;2022-08-19T05:03:18;100969.09;;;21.77;54.13
14757;BME280;62446;53.214;10.398;2022-08-19T05:06:22;100967.41;;;21.76;54.37
14757;BME280;62446;53.214;10.398;2022-08-19T05:09:27;100973.00;;;21.76;54.35
14757;BME280;62446;53.214;10.398;2022-08-19T05:12:51;100985.06;;;21.77;54.15
14757;BME280;62446;53.214;10.398;2022-08-19T05:15:56;100978.94;;;21.75;54.51
14757;BME280;62446;53.214;10.398;2022-08-19T05:19:02;100981.75;;;21.75;54.26
14757;BME280;62446;53.214;10.398;2022-08-19T05:22:23;100975.31;;;21.74;54.22
14757;BME280;62446;53.214;10.398;2022-08-19T05:25:39;100985.38;;;21.75;54.46
14757;BME280;62446;53.214;10.398;2022-08-19T05:28:43;100990.47;;;21.73;53.93
14757;BME280;62446;53.214;10.398;2022-08-19T05:31:47;100992.13;;;21.74;54.38
14757;BME280;62446;53.214;10.398;2022-08-19T05:34:54;100986.81;;;21.72;54.39
14757;BME280;62446;53.214;10.398;2022-08-19T05:37:58;100976.72;;;21.71;54.48
14757;BME280;62446;53.214;10.398;2022-08-19T05:41:06;100986.81;;;21.72;54.49
14757;BME280;62446;53.214;10.398;2022-08-19T05:44:10;100983.19;;;21.72;53.95
14757;BME280;62446;53.214;10.398;2022-08-19T05:47:15;100977.88;;;21.70;54.07
14757;BME280;62446;53.214;10.398;2022-08-19T05:50:22;100979.84;;;21.70;54.42
14757;BME280;62446;53.214;10.398;2022-08-19T05:53:26;100973.38;;;21.69;54.42
14757;BME280;62446;53.214;10.398;2022-08-19T05:56:30;100972.56;;;21.69;54.34
14757;BME280;62446;53.214;10.398;2022-08-19T05:59:34;100972.56;;;21.69;54.20
14757;BME280;62446;53.214;10.398;2022-08-19T06:02:40;100970.88;;;21.68;54.33
14757;BME280;62446;53.214;10.398;2022-08-19T06:05:46;100972.56;;;21.69;53.97
14757;BME280;62446;53.214;10.398;2022-08-19T06:08:53;100958.00;;;21.67;54.11
14757;BME280;62446;53.214;10.398;2022-08-19T06:11:58;100944.81;;;21.67;54.01
14757;BME280;62446;53.214;10.398;2022-08-19T06:15:08;100944.50;;;21.69;53.97
14757;BME280;62446;53.214;10.398;2022-08-19T06:18:12;100942.81;;;21.68;54.05
14757;BME280;62446;53.214;10.398;2022-08-19T06:21:19;100948.44;;;21.68;54.08
14757;BME280;62446;53.214;10.398;2022-08-19T06:24:25;100952.41;;;21.67;54.34
14757;BME280;62446;53.214;10.398;2022-08-19T06:27:29;100955.50;;;21.65;53.88
14757;BME280;62446;53.214;10.398;2022-08-19T06:30:35;100946.78;;;21.67;53.90
14757;BME280;62446;53.214;10.398;2022-08-19T06:33:39;100950.72;;;21.66;54.23
14757;BME280;62446;53.214;10.398;2022-08-19T06:36:46;100950.72;;;21.66;53.92
14757;BME280;62446;53.214;10.398;2022-08-19T06:39:51;100953.84;;;21.64;54.35
14757;BME280;62446;53.214;10.398;2022-08-19T06:42:55;100951.34;;;21.63;54.33
14757;BME280;62446;53.214;10.398;2022-08-19T06:46:02;100950.19;;;21.64;54.05
14757;BME280;62446;53.214;10.398;2022-08-19T06:49:07;100951.34;;;21.63;54.01
14757;BME280;62446;53.214;10.398;2022-08-19T06:52:13;100946.84;;;21.62;54.02
14757;BME280;62446;53.214;10.398;2022-08-19T06:55:18;100950.78;;;21.61;54.24
14757;BME280;62446;53.214;10.398;2022-08-19T06:58:22;100958.91;;;21.62;54.39
14757;BME280;62446;53.214;10.398;2022-08-19T07:01:26;100962.00;;;21.61;54.35
14757;BME280;62446;53.214;10.398;2022-08-19T07:04:31;100958.38;;;21.60;54.02
14757;BME280;62446;53.214;10.398;2022-08-19T07:07:36;100964.00;;;21.60;53.94
14757;BME280;62446;53.214;10.398;2022-08-19T07:10:44;100963.16;;;21.60;54.00
14757;BME280;62446;53.214;10.398;2022-08-19T07:13:49;100963.16;;;21.60;53.87
14757;BME280;62446;53.214;10.398;2022-08-19T07:16:56;100983.94;;;21.59;54.15
14757;BME280;62446;53.214;10.398;2022-08-19T07:20:00;100985.38;;;21.56;54.14
14757;BME280;62446;53.214;10.398;2022-08-19T07:23:10;100986.75;;;21.59;54.06
14757;BME280;62446;53.214;10.398;2022-08-19T07:26:21;100993.78;;;21.56;54.04
14757;BME280;62446;53.214;10.398;2022-08-19T07:29:31;100994.34;;;21.58;54.25
14757;BME280;62446;53.214;10.398;2022-08-19T07:32:36;100993.47;;;21.58;53.92
14757;BME280;62446;53.214;10.398;2022-08-19T07:35:40;100993.47;;;21.58;53.90
14757;BME280;62446;53.214;10.398;2022-08-19T07:38:48;100999.94;;;21.58;54.20
14757;BME280;62446;53.214;10.398;2022-08-19T07:41:55;101007.50;;;21.58;54.05
14757;BME280;62446;53.214;10.398;2022-08-19T07:44:59;101018.41;;;21.59;53.94
14757;BME280;62446;53.214;10.398;2022-08-19T07:48:04;101015.31;;;21.61;54.34
14757;BME280;62446;53.214;10.398;2022-08-19T07:51:09;101023.44;;;21.62;54.49
14757;BME280;62446;53.214;10.398;2022-08-19T07:54:20;101022.00;;;21.65;54.69
14757;BME280;62446;53.214;10.398;2022-08-19T07:57:24;101027.59;;;21.65;54.86
14757;BME280;62446;53.214;10.398;2022-08-19T08:00:28;101027.59;;;21.65;54.83
14757;BME280;62446;53.214;10.398;2022-08-19T08:03:32;101032.09;;;21.66;54.81
14757;BME280;62446;53.214;10.398;2022-08-19T08:06:53;101035.41;;;21.68;54.76
14757;BME280;62446;53.214;10.398;2022-08-19T08:10:16;101029.50;;;21.69;54.95
14757;BME280;62446;53.214;10.398;2022-08-19T08:13:22;101037.63;;;21.71;54.77
14757;BME280;62446;53.214;10.398;2022-08-19T08:16:26;101039.28;;;21.72;55.03
14757;BME280;62446;53.214;10.398;2022-08-19T08:19:32;101042.66;;;21.74;55.04
14757;BME280;62446;53.214;10.398;2022-08-19T08:22:36;101051.59;;;21.76;54.82
14757;BME280;62446;53.214;10.398;2022-08-19T08:25:59;101051.28;;;21.78;54.92
14757;BME280;62446;53.214;10.398;2022-08-19T08:29:04;101051.81;;;21.80;54.71
14757;BME280;62446;53.214;10.398;2022-08-19T08:32:14;101058.28;;;21.80;55.08
14757;BME280;62446;53.214;10.398;2022-08-19T08:35:20;101060.78;;;21.82;54.70
14757;BME280;62446;53.214;10.398;2022-08-19T08:38:24;101066.09;;;21.83;54.81
14757;BME280;62446;53.214;10.398;2022-08-19T08:41:37;101054.25;;;21.86;54.92
14757;BME280;62446;53.214;10.398;2022-08-19T08:44:51;101059.88;;;21.86;54.48
14757;BME280;62446;53.214;10.398;2022-08-19T08:48:10;101063.50;;;21.87;54.90
14757;BME280;62446;53.214;10.398;2022-08-19T08:51:28;101059.56;;;21.88;54.82
14757;BME280;62446;53.214;10.398;2022-08-19T08:54:39;101067.69;;;21.89;54.63
14757;BME280;62446;53.214;10.398;2022-08-19T08:58:01;101073.03;;;21.91;54.49
14757;BME280;62446;53.214;10.398;2022-08-19T09:01:05;101075.00;;;21.91;54.49
14757;BME280;62446;53.214;10.398;2022-08-19T09:04:10;101062.06;;;21.89;54.40
14757;BME280;62446;53.214;10.398;2022-08-19T09:07:25;101063.16;;;21.94;54.27
14757;BME280;62446;53.214;10.398;2022-08-19T09:10:40;101061.50;;;21.93;54.12
14757;BME280;62446;53.214;10.398;2022-08-19T09:13:58;101060.38;;;21.94;54.15
14757;BME280;62446;53.214;10.398;2022-08-19T09:17:05;101057.56;;;21.94;54.15
14757;BME280;62446;53.214;10.398;2022-08-19T09:20:17;101053.63;;;21.95;54.06
14757;BME280;62446;53.214;10.398;2022-08-19T09:23:21;101064.00;;;21.94;54.26
14757;BME280;62446;53.214;10.398;2022-08-19T09:26:28;101053.63;;;21.95;54.38
14757;BME280;62446;53.214;10.398;2022-08-19T09:29:54;101059.22;;;21.95;54.34
14757;BME280;62446;53.214;10.398;2022-08-19T09:32:58;101061.50;;;21.93;54.33
14757;BME280;62446;53.214;10.398;2022-08-19T09:36:06;101062.34;;;21.93;54.17
14757;BME280;62446;53.214;10.398;2022-08-19T09:39:10;101064.28;;;21.93;54.16
14757;BME280;62446;53.214;10.398;2022-08-19T09:42:18;101063.16;;;21.94;54.23
14757;BME280;62446;53.214;10.398;2022-08-19T09:45:38;101065.97;;;21.94;54.26
14757;BME280;62446;53.214;10.398;2022-08-19T09:48:42;101070.47;;;21.95;53.97
14757;BME280;62446;53.214;10.398;2022-08-19T09:51:49;101072.97;;;21.96;54.37
14757;BME280;62446;53.214;10.398;2022-08-19T09:54:54;101075.47;;;21.98;53.92
14757;BME280;62446;53.214;10.398;2022-08-19T09:57:59;101070.69;;;21.98;54.36
14757;BME280;62446;53.214;10.398;2022-08-19T10:01:06;101069.25;;;22.01;53.99
14757;BME280;62446;53.214;10.398;2022-08-19T10:04:11;101070.91;;;22.02;54.24
14757;BME280;62446;53.214;10.398;2022-08-19T10:07:21;101064.69;;;22.05;54.18
14757;BME280;62446;53.214;10.398;2022-08-19T10:10:37;101063.22;;;22.07;54.10
14757;BME280;62446;53.214;10.398;2022-08-19T10:13:45;101061.78;;;22.10;54.42
14757;BME280;62446;53.214;10.398;2022-08-19T10:16:50;101067.97;;;22.12;54.35
14757;BME280;62446;53.214;10.398;2022-08-19T10:19:54;101069.31;;;22.15;54.33
14757;BME280;62446;53.214;10.398;2022-08-19T10:22:58;101071.81;;;22.16;54.33
14757;BME280;62446;53.214;10.398;2022-08-19T10:26:03;101073.47;;;22.17;54.41
14757;BME280;62446;53.214;10.398;2022-08-19T10:29:08;101077.66;;;22.20;54.69
14757;BME280;62446;53.214;10.398;2022-08-19T10:32:14;101079.34;;;22.21;54.44
14757;BME280;62446;53.214;10.398;2022-08-19T10:35:18;101083.19;;;22.25;53.95
14757;BME280;62446;53.214;10.398;2022-08-19T10:38:23;101078.13;;;22.27;54.19
14757;BME280;62446;53.214;10.398;2022-08-19T10:41:35;101086.22;;;22.29;54.31
14757;BME280;62446;53.214;10.398;2022-08-19T10:44:39;101086.22;;;22.29;54.23
14757;BME280;62446;53.214;10.398;2022-08-19T10:47:46;101081.44;;;22.29;54.07
14757;BME280;62446;53.214;10.398;2022-08-19T10:50:50;101075.00;;;22.29;53.99
14757;BME280;62446;53.214;10.398;2022-08-19T10:54:11;101076.38;;;22.31;54.20
14757;BME280;62446;53.214;10.398;2022-08-19T10:57:15;101075.22;;;22.32;54.30
14757;BME280;62446;53.214;10.398;2022-08-19T11:00:19;101080.50;;;22.34;54.26
14757;BME280;62446;53.214;10.398;2022-08-19T11:03:25;101072.09;;;22.34;54.17
14757;BME280;62446;53.214;10.398;2022-08-19T11:06:31;101073.78;;;22.35;54.06
14757;BME280;62446;53.214;10.398;2022-08-19T11:09:39;101075.44;;;22.36;54.27
14757;BME280;62446;53.214;10.398;2022-08-19T11:12:43;101061.09;;;22.37;54.13
14757;BME280;62446;53.214;10.398;2022-08-19T11:15:56;101054.03;;;22.40;53.99
14757;BME280;62446;53.214;10.398;2022-08-19T11:19:06;101054.03;;;22.40;54.26
14757;BME280;62446;53.214;10.398;2022-08-19T11:22:11;101057.97;;;22.39;53.88
14757;BME280;62446;53.214;10.398;2022-08-19T11:25:20;101065.84;;;22.37;54.00
14757;BME280;62446;53.214;10.398;2022-08-19T11:28:24;101066.72;;;22.37;54.03
14757;BME280;62446;53.214;10.398;2022-08-19T11:31:31;101060.25;;;22.37;53.77
14757;BME280;62446;53.214;10.398;2022-08-19T11:34:37;101053.78;;;22.36;53.63
14757;BME280;62446;53.214;10.398;2022-08-19T11:37:41;101058.59;;;22.36;53.62
14757;BME280;62446;53.214;10.398;2022-08-19T11:40:44;101052.97;;;22.36;53.51
14757;BME280;62446;53.214;10.398;2022-08-19T11:43:49;101046.50;;;22.35;53.49
14757;BME280;62446;53.214;10.398;2022-08-19T11:46:54;101055.25;;;22.34;53.59
14757;BME280;62446;53.214;10.398;2022-08-19T11:49:59;101051.59;;;22.33;53.82
14757;BME280;62446;53.214;10.398;2022-08-19T11:53:03;101047.97;;;22.33;53.71
14757;BME280;62446;53.214;10.398;2022-08-19T11:56:11;101050.22;;;22.31;53.82
14757;BME280;62446;53.214;10.398;2022-08-19T11:59:15;101040.69;;;22.32;53.46
14757;BME280;62446;53.214;10.398;2022-08-19T12:02:19;101053.91;;;22.31;53.75
14757;BME280;62446;53.214;10.398;2022-08-19T12:05:25;101050.22;;;22.31;53.70
14757;BME280;62446;53.214;10.398;2022-08-19T12:08:29;101052.22;;;22.30;53.83
14757;BME280;62446;53.214;10.398;2022-08-19T12:11:33;101044.63;;;22.31;53.70
14757;BME280;62446;53.214;10.398;2022-08-19T12:14:37;101044.94;;;22.29;53.53
14757;BME280;62446;53.214;10.398;2022-08-19T12:17:41;101035.69;;;22.29;53.57
14757;BME280;62446;53.214;10.398;2022-08-19T12:20:47;101034.00;;;22.28;53.56
14757;BME280;62446;53.214;10.398;2022-08-19T12:23:51;101048.88;;;22.28;53.74
14757;BME280;62446;53.214;10.398;2022-08-19T12:26:57;101043.56;;;22.27;53.31
14757;BME280;62446;53.214;10.398;2022-08-19T12:30:06;101054.78;;;22.27;53.50
14757;BME280;62446;53.214;10.398;2022-08-19T12:33:11;101054.78;;;22.27;53.55
14757;BME280;62446;53.214;10.398;2022-08-19T12:36:17;101044.63;;;22.31;53.59
14757;BME280;62446;53.214;10.398;2022-08-19T12:39:22;101045.69;;;22.35;53.55
14757;BME280;62446;53.214;10.398;2022-08-19T12:42:26;101050.69;;;22.38;53.54
14757;BME280;62446;53.214;10.398;2022-08-19T12:45:30;101052.88;;;22.41;53.34
14757;BME280;62446;53.214;10.398;2022-08-19T12:48:35;101045.81;;;22.44;53.28
14757;BME280;62446;53.214;10.398;2022-08-19T12:51:42;101040.41;;;22.47;53.34
14757;BME280;62446;53.214;10.398;2022-08-19T12:54:46;101049.69;;;22.48;53.33
14757;BME280;62446;53.214;10.398;2022-08-19T12:57:55;101048.25;;;22.50;53.22
14757;BME280;62446;53.214;10.398;2022-08-19T13:00:59;101049.06;;;22.51;53.14
14757;BME280;62446;53.214;10.398;2022-08-19T13:04:03;101040.31;;;22.52;53.30
14757;BME280;62446;53.214;10.398;2022-08-19T13:07:08;101050.94;;;22.55;53.22
14757;BME280;62446;53.214;10.398;2022-08-19T13:10:15;101040.53;;;22.56;53.07
14757;BME280;62446;53.214;10.398;2022-08-19T13:13:20;101032.66;;;22.58;53.30
14757;BME280;62446;53.214;10.398;2022-08-19T13:16:24;101040.78;;;22.59;53.44
14757;BME280;62446;53.214;10.398;2022-08-19T13:19:29;101040.50;;;22.61;53.08
14757;BME280;62446;53.214;10.398;2022-08-19T13:22:35;101043.31;;;22.61;53.14
14757;BME280;62446;53.214;10.398;2022-08-19T13:25:39;101043.00;;;22.63;53.17
14757;BME280;62446;53.214;10.398;2022-08-19T13:28:43;101047.47;;;22.64;53.13
14757;BME280;62446;53.214;10.398;2022-08-19T13:32:06;101042.38;;;22.66;53.16
14757;BME280;62446;53.214;10.398;2022-08-19T13:35:27;101040.38;;;22.66;53.18
14757;BME280;62446;53.214;10.398;2022-08-19T13:38:33;101038.13;;;22.68;53.00
14757;BME280;62446;53.214;10.398;2022-08-19T13:41:42;101043.44;;;22.70;52.98
14757;BME280;62446;53.214;10.398;2022-08-19T13:44:47;101045.09;;;22.71;52.84
14757;BME280;62446;53.214;10.398;2022-08-19T13:47:53;101040.81;;;22.73;52.85
14757;BME280;62446;53.214;10.398;2022-08-19T13:51:04;101046.44;;;22.73;52.90
14757;BME280;62446;53.214;10.398;2022-08-19T13:54:10;101033.53;;;22.72;52.87
14757;BME280;62446;53.214;10.398;2022-08-19T13:57:14;101034.38;;;22.73;52.88
14757;BME280;62446;53.214;10.398;2022-08-19T14:00:19;101030.44;;;22.74;53.00
14757;BME280;62446;53.214;10.398;2022-08-19T14:03:23;101038.31;;;22.72;53.28
14757;BME280;62446;53.214;10.398;2022-08-19T14:06:27;101033.31;;;22.69;53.07
14757;BME280;62446;53.214;10.398;2022-08-19T14:09:32;101024.38;;;22.67;53.21
14757;BME280;62446;53.214;10.398;2022-08-19T14:12:36;101023.31;;;22.63;53.25
14757;BME280;62446;53.214;10.398;2022-08-19T14:15:40;101020.00;;;22.61;53.36
14757;BME280;62446;53.214;10.398;2022-08-19T14:18:44;101026.16;;;22.57;53.47
14757;BME280;62446;53.214;10.398;2022-08-19T14:21:48;101025.97;;;22.54;53.58
14757;BME280;62446;53.214;10.398;2022-08-19T14:24:53;101017.84;;;22.52;53.59
14757;BME280;62446;53.214;10.398;2022-08-19T14:27:57;101014.53;;;22.50;53.73
14757;BME280;62446;53.214;10.398;2022-08-19T14:31:01;101011.16;;;22.48;53.47
14757;BME280;62446;53.214;10.398;2022-08-19T14:34:05;101009.50;;;22.47;53.69
14757;BME280;62446;53.214;10.398;2022-08-19T14:37:09;101019.09;;;22.46;53.55
14757;BME280;62446;53.214;10.398;2022-08-19T14:40:18;101013.47;;;22.46;53.49
14757;BME280;62446;53.214;10.398;2022-08-19T14:43:23;101013.78;;;22.45;53.66
14757;BME280;62446;53.214;10.398;2022-08-19T14:46:28;101010.97;;;22.45;53.61
14757;BME280;62446;53.214;10.398;2022-08-19T14:49:32;101009.28;;;22.44;53.60
14757;BME280;62446;53.214;10.398;2022-08-19T14:52:45;101015.72;;;22.44;53.57
14757;BME280;62446;53.214;10.398;2022-08-19T14:55:51;101006.78;;;22.42;53.46
14757;BME280;62446;53.214;10.398;2022-08-19T14:58:55;101010.72;;;22.41;53.72
14757;BME280;62446;53.214;10.398;2022-08-19T15:02:01;101018.03;;;22.42;53.81
14757;BME280;62446;53.214;10.398;2022-08-19T15:05:26;101018.66;;;22.39;53.59
14757;BME280;62446;53.214;10.398;2022-08-19T15:08:33;101018.66;;;22.39;53.63
14757;BME280;62446;53.214;10.398;2022-08-19T15:11:40;101018.66;;;22.39;53.71
14757;BME280;62446;53.214;10.398;2022-08-19T15:14:45;101020.31;;;22.40;53.64
14757;BME280;62446;53.214;10.398;2022-08-19T15:17:55;101025.09;;;22.39;53.60
14757;BME280;62446;53.214;10.398;2022-08-19T15:21:04;101019.47;;;22.39;53.66
14757;BME280;62446;53.214;10.398;2022-08-19T15:24:09;101024.28;;;22.39;53.37
14757;BME280;62446;53.214;10.398;2022-08-19T15:27:14;101013.03;;;22.39;53.52
14757;BME280;62446;53.214;10.398;2022-08-19T15:30:21;101013.03;;;22.39;53.43
14757;BME280;62446;53.214;10.398;2022-08-19T15:33:25;101012.19;;;22.38;53.54
14757;BME280;62446;53.214;10.398;2022-08-19T15:36:29;101016.97;;;22.38;53.38
14757;BME280;62446;53.214;10.398;2022-08-19T15:39:34;101022.59;;;22.38;53.45
14757;BME280;62446;53.214;10.398;2022-08-19T15:42:39;101026.22;;;22.38;53.62
14757;BME280;62446;53.214;10.398;2022-08-19T15:45:45;101023.41;;;22.38;53.40
14757;BME280;62446;53.214;10.398;2022-08-19T15:48:52;101022.59;;;22.38;53.60
14757;BME280;62446;53.214;10.398;2022-08-19T15:52:01;101028.22;;;22.38;53.53
14757;BME280;62446;53.214;10.398;2022-08-19T15:55:05;101032.16;;;22.37;53.48
14757;BME280;62446;53.214;10.398;2022-08-19T15:58:18;101028.22;;;22.38;53.71
14757;BME280;62446;53.214;10.398;2022-08-19T16:01:39;101018.97;;;22.37;53.49
14757;BME280;62446;53.214;10.398;2022-08-19T16:05:01;101012.47;;;22.37;53.45